Time;durP1;ratioP1;P1;durP2;ratioP2;P2;SDS_P1;SDS_P2;PMS_P1;PMS_P2;Temp;Humidity;BMP_temperature;BMP_pressure;BME280_temperature;BME280_humidity;BME280_pressure;Samples;Min_cycle;Max_cycle;Signal;HPM_P1;HPM_P2
2023/07/12 00:00:19;;;;;;;0.35;0.30;;;;;;;12.91;100.00;100321.78;5037004;28;20087;-75
2023/07/12 00:02:45;;;;;;;0.40;0.30;;;;;;;12.96;100.00;100327.41;5037255;28;20037;-76
2023/07/12 00:05:11;;;;;;;0.20;0.20;;;;;;;12.97;100.00;100327.22;5037154;28;20111;-75
2023/07/12 00:07:36;;;;;;;0.30;0.30;;;;;;;12.68;100.00;100277.09;5036639;28;20033;-76
2023/07/12 00:10:02;;;;;;;0.52;0.35;;;;;;;12.96;100.00;100325.56;5036461;28;20102;-75
2023/07/12 00:12:28;;;;;;;0.20;0.20;;;;;;;12.99;100.00;100324.31;5019978;28;20048;-75
2023/07/12 00:14:54;;;;;;;0.22;0.22;;;;;;;13.02;100.00;100323.94;5020653;28;20486;-75
2023/07/12 00:17:21;;;;;;;0.38;0.30;;;;;;;12.95;100.00;100318.50;5053363;28;20086;-76
2023/07/12 00:19:47;;;;;;;0.35;0.30;;;;;;;13.05;100.00;100323.53;5020534;28;20025;-75
2023/07/12 00:22:12;;;;;;;0.30;0.30;;;;;;;12.95;100.00;100306.88;5036399;28;20537;-75
2023/07/12 00:24:41;;;;;;;2.40;0.70;;;;;;;13.06;100.00;100322.47;5019481;28;20037;-75
2023/07/12 00:27:09;;;;;;;0.90;0.40;;;;;;;13.02;100.00;100320.38;5019361;28;20125;-76
2023/07/12 00:29:34;;;;;;;0.80;0.40;;;;;;;12.97;100.00;100316.44;5019298;28;20037;-75
2023/07/12 00:32:02;;;;;;;0.30;0.30;;;;;;;13.02;100.00;100321.25;5019554;28;20091;-77
2023/07/12 00:34:28;;;;;;;0.25;0.25;;;;;;;13.01;100.00;100316.84;5019806;28;20033;-75
2023/07/12 00:36:54;;;;;;;0.30;0.30;;;;;;;12.98;100.00;100328.06;5019830;28;20025;-75
2023/07/12 00:39:20;;;;;;;0.30;0.30;;;;;;;12.91;100.00;100321.78;5053112;28;20028;-76
2023/07/12 00:42:28;;;;;;;0.22;0.22;;;;;;;12.90;100.00;100314.75;5036230;28;20387;-75
2023/07/12 00:44:55;;;;;;;1.13;0.50;;;;;;;12.91;100.00;100316.41;5014495;28;20047;-75
2023/07/12 00:47:21;;;;;;;1.25;0.60;;;;;;;12.89;100.00;100308.53;5036198;28;20037;-75
2023/07/12 00:49:47;;;;;;;1.17;0.50;;;;;;;12.90;100.00;100303.94;5052339;28;20345;-75
2023/07/12 00:52:18;;;;;;;0.30;0.30;;;;;;;12.88;100.00;100311.41;5052485;28;20075;-75
2023/07/12 00:55:01;;;;;;;0.30;0.30;;;;;;;12.81;100.00;100308.69;5035881;28;20486;-75
2023/07/12 00:57:30;;;;;;;0.30;0.30;;;;;;;12.76;100.00;100303.91;5036373;28;20043;-75
2023/07/12 01:00:10;;;;;;;0.47;0.38;;;;;;;12.74;100.00;100311.34;5035700;28;20029;-75
2023/07/12 01:02:38;;;;;;;0.35;0.30;;;;;;;12.80;100.00;100314.28;5020085;28;20095;-75
2023/07/12 01:05:04;;;;;;;0.32;0.32;;;;;;;12.82;100.00;100314.94;5019294;28;20056;-75
2023/07/12 01:07:30;;;;;;;0.38;0.38;;;;;;;12.85;100.00;100317.22;5035654;28;20395;-75
2023/07/12 01:09:56;;;;;;;0.52;0.40;;;;;;;12.89;100.00;100319.31;5052258;28;20040;-75
2023/07/12 01:12:22;;;;;;;0.43;0.40;;;;;;;12.85;100.00;100314.50;5019359;28;20041;-75
2023/07/12 01:14:48;;;;;;;0.38;0.30;;;;;;;12.73;100.00;100312.41;5019505;28;20041;-75
2023/07/12 01:17:14;;;;;;;0.30;0.30;;;;;;;12.52;100.00;100289.06;5019591;28;20123;-75
2023/07/12 01:19:40;;;;;;;0.32;0.32;;;;;;;12.62;100.00;100318.38;5035905;28;20029;-75
2023/07/12 01:22:07;;;;;;;0.25;0.25;;;;;;;12.62;100.00;100315.69;5018985;28;20384;-75
2023/07/12 01:24:32;;;;;;;0.28;0.28;;;;;;;12.60;100.00;100315.03;5035953;28;20192;-75
2023/07/12 01:27:00;;;;;;;0.30;0.30;;;;;;;12.57;100.00;100307.34;5035578;28;20112;-75
2023/07/12 01:29:27;;;;;;;0.20;0.20;;;;;;;12.48;100.00;100308.53;5035455;28;20051;-75
2023/07/12 01:31:53;;;;;;;0.30;0.30;;;;;;;12.51;100.00;100313.53;5051987;28;20025;-77
2023/07/12 01:34:19;;;;;;;0.30;0.30;;;;;;;12.48;100.00;100308.53;5052052;28;20541;-75
2023/07/12 01:36:45;;;;;;;0.30;0.30;;;;;;;12.38;100.00;100284.63;5019344;28;20037;-77
2023/07/12 01:39:11;;;;;;;0.35;0.30;;;;;;;12.49;100.00;100296.72;5052546;28;20060;-75
2023/07/12 01:41:38;;;;;;;0.30;0.30;;;;;;;12.47;100.00;100298.78;5035920;28;20482;-75
2023/07/12 01:44:04;;;;;;;0.30;0.30;;;;;;;12.49;100.00;100302.09;5019233;28;20047;-76
2023/07/12 01:46:30;;;;;;;0.30;0.30;;;;;;;12.56;100.00;100299.44;5019330;28;20495;-75
2023/07/12 01:48:55;;;;;;;0.25;0.25;;;;;;;12.60;100.00;100301.56;5019295;28;20037;-75
2023/07/12 01:51:21;;;;;;;0.30;0.30;;;;;;;12.68;100.00;100304.06;5019234;28;20037;-75
2023/07/12 01:53:47;;;;;;;0.20;0.20;;;;;;;12.76;100.00;100305.78;5052125;28;20103;-75
2023/07/12 01:56:14;;;;;;;0.30;0.30;;;;;;;12.79;100.00;100301.84;5019267;28;20044;-75
2023/07/12 01:58:39;;;;;;;0.30;0.30;;;;;;;12.80;100.00;100298.94;5035703;28;20068;-75
2023/07/12 02:01:05;;;;;;;0.30;0.30;;;;;;;12.87;100.00;100299.78;5018941;28;20475;-75
2023/07/12 02:03:31;;;;;;;0.30;0.30;;;;;;;12.91;100.00;100309.16;5052098;28;20037;-78
2023/07/12 02:05:57;;;;;;;0.30;0.30;;;;;;;12.92;100.00;100313.50;5019178;28;20178;-77
2023/07/12 02:08:23;;;;;;;0.30;0.30;;;;;;;12.96;100.00;100301.25;5019121;28;20044;-75
2023/07/12 02:10:49;;;;;;;0.30;0.30;;;;;;;12.98;100.00;100306.47;5035102;28;20033;-75
2023/07/12 02:13:15;;;;;;;0.38;0.30;;;;;;;12.99;100.00;100302.72;5018997;28;20529;-75
2023/07/12 02:15:41;;;;;;;0.38;0.30;;;;;;;13.03;100.00;100313.97;5051528;28;20033;-75
2023/07/12 02:18:11;;;;;;;0.73;0.50;;;;;;;13.03;100.00;100311.25;5034860;28;20036;-75
2023/07/12 02:20:40;;;;;;;0.95;0.40;;;;;;;13.00;100.00;100308.97;5018027;28;20111;-78
2023/07/12 02:23:08;;;;;;;0.30;0.30;;;;;;;12.93;100.00;100295.44;5018518;28;20040;-77
2023/07/12 02:25:35;;;;;;;0.20;0.20;;;;;;;12.93;100.00;100303.53;5018420;28;20036;-77
2023/07/12 02:28:02;;;;;;;0.45;0.40;;;;;;;12.77;100.00;100277.75;5034866;28;20032;-76
2023/07/12 02:30:30;;;;;;;0.30;0.30;;;;;;;12.82;100.00;100285.25;5018543;28;20062;-77
2023/07/12 02:32:59;;;;;;;0.68;0.40;;;;;;;12.89;100.00;100300.44;5019216;28;20037;-76
2023/07/12 02:35:29;;;;;;;1.00;0.40;;;;;;;12.85;100.00;100304.56;5038585;28;20033;-77
2023/07/12 02:38:04;;;;;;;0.52;0.35;;;;;;;12.80;100.00;100298.94;5023461;28;20032;-77
2023/07/12 02:40:36;;;;;;;0.30;0.30;;;;;;;12.80;100.00;100298.09;5022494;28;20067;-76
2023/07/12 02:43:03;;;;;;;0.20;0.20;;;;;;;12.76;100.00;100292.28;5022484;28;20028;-78
2023/07/12 02:45:33;;;;;;;1.65;0.60;;;;;;;12.75;100.00;100280.66;5038245;28;20025;-75
2023/07/12 02:47:59;;;;;;;0.60;0.40;;;;;;;12.83;100.00;100284.19;5021610;28;20495;-75
2023/07/12 02:50:26;;;;;;;0.30;0.30;;;;;;;13.00;100.00;100304.41;5038382;28;20078;-75
2023/07/12 02:52:54;;;;;;;0.30;0.30;;;;;;;12.99;100.00;100305.41;5022030;28;20052;-77
2023/07/12 02:55:20;;;;;;;0.30;0.30;;;;;;;13.00;100.00;100314.38;5021944;28;20119;-77
2023/07/12 02:57:46;;;;;;;0.70;0.40;;;;;;;12.99;100.00;100313.53;5038504;28;20458;-77
2023/07/12 03:00:12;;;;;;;0.20;0.20;;;;;;;13.00;100.00;100308.97;5038307;28;20460;-77
2023/07/12 03:02:38;;;;;;;1.00;0.45;;;;;;;13.01;100.00;100311.47;5054843;28;20037;-77
2023/07/12 03:05:04;;;;;;;0.40;0.38;;;;;;;12.99;100.00;100297.31;5021850;28;20051;-78
2023/07/12 03:07:29;;;;;;;0.30;0.30;;;;;;;13.02;100.00;100306.88;5021804;28;20028;-77
2023/07/12 03:09:56;;;;;;;0.30;0.30;;;;;;;13.06;100.00;100318.97;5021752;28;20037;-77
2023/07/12 03:12:22;;;;;;;0.30;0.30;;;;;;;13.07;100.00;100324.16;5021688;28;20090;-77
2023/07/12 03:14:48;;;;;;;0.70;0.63;;;;;;;12.98;100.00;100312.69;5038159;28;20391;-75
2023/07/12 03:17:13;;;;;;;0.57;0.57;;;;;;;12.91;100.00;100309.16;5020819;28;20532;-77
2023/07/12 03:19:39;;;;;;;74.25;3.67;;;;;;;12.84;100.00;100304.78;5037971;28;20025;-76
2023/07/12 03:22:05;;;;;;;0.20;0.20;;;;;;;12.83;100.00;100311.19;5021365;28;20037;-77
2023/07/12 03:24:30;;;;;;;0.30;0.30;;;;;;;12.79;100.00;100315.34;5021205;28;20079;-77
2023/07/12 03:26:56;;;;;;;0.20;0.20;;;;;;;12.70;100.00;100311.94;5037478;28;20029;-77
2023/07/12 03:29:22;;;;;;;0.20;0.20;;;;;;;12.68;100.00;100312.16;5054023;28;20037;-77
2023/07/12 03:31:47;;;;;;;1.98;0.70;;;;;;;12.67;100.00;100321.28;5020946;28;20025;-77
2023/07/12 03:34:13;;;;;;;0.28;0.28;;;;;;;12.63;100.00;100316.50;5021347;28;20036;-77
2023/07/12 03:36:39;;;;;;;0.85;0.45;;;;;;;12.63;100.00;100322.72;5021314;28;20045;-76
2023/07/12 03:39:05;;;;;;;0.20;0.20;;;;;;;12.63;100.00;100317.34;5021217;28;20499;-75
2023/07/12 03:41:31;;;;;;;0.40;0.40;;;;;;;12.63;100.00;100316.50;5037489;28;20064;-75
2023/07/12 03:43:56;;;;;;;0.32;0.30;;;;;;;12.62;100.00;100301.34;5020119;28;20491;-75
2023/07/12 03:46:22;;;;;;;0.38;0.30;;;;;;;12.59;100.00;100305.25;5020860;28;20083;-75
2023/07/12 03:48:48;;;;;;;0.32;0.30;;;;;;;12.62;100.00;100312.97;5037503;28;20025;-76
2023/07/12 03:51:14;;;;;;;0.30;0.30;;;;;;;12.63;100.00;100306.53;5021329;28;20059;-75
2023/07/12 03:53:40;;;;;;;0.30;0.30;;;;;;;12.64;100.00;100316.28;5053629;28;20048;-75
2023/07/12 03:56:09;;;;;;;0.30;0.30;;;;;;;12.63;100.00;100314.63;5037416;28;20048;-75
2023/07/12 03:58:37;;;;;;;0.30;0.30;;;;;;;12.60;100.00;100314.22;5021246;28;20090;-75
2023/07/12 04:01:05;;;;;;;0.30;0.30;;;;;;;12.54;100.00;100313.13;5020474;28;20033;-75
2023/07/12 04:03:32;;;;;;;0.20;0.20;;;;;;;12.57;100.00;100315.44;5020793;28;20072;-76
2023/07/12 04:05:57;;;;;;;0.30;0.30;;;;;;;12.49;100.00;100302.09;5036712;28;20025;-77
2023/07/12 04:08:23;;;;;;;0.30;0.30;;;;;;;12.56;100.00;100313.75;5020655;28;20037;-75
2023/07/12 04:10:53;;;;;;;0.20;0.20;;;;;;;12.56;100.00;100318.31;5036738;28;20036;-75
2023/07/12 04:13:19;;;;;;;0.30;0.30;;;;;;;12.53;100.00;100314.16;5020703;28;20037;-77
2023/07/12 04:15:45;;;;;;;0.50;0.40;;;;;;;12.54;100.00;100321.22;5052691;28;20032;-74
2023/07/12 04:18:11;;;;;;;0.55;0.32;;;;;;;12.54;100.00;100322.06;5020437;28;20032;-76
2023/07/12 04:20:38;;;;;;;0.30;0.30;;;;;;;12.54;100.00;100321.22;5019993;28;20412;-75
2023/07/12 04:23:04;;;;;;;0.35;0.30;;;;;;;12.49;100.00;100315.59;5036911;28;20035;-75
2023/07/12 04:25:30;;;;;;;0.30;0.30;;;;;;;12.46;100.00;100310.59;5053038;28;20449;-75
2023/07/12 04:27:55;;;;;;;0.40;0.30;;;;;;;12.37;100.00;100322.59;5036676;28;20156;-75
2023/07/12 04:30:21;;;;;;;0.75;0.40;;;;;;;12.26;100.00;100315.88;5020250;28;20502;-75
2023/07/12 04:32:47;;;;;;;0.45;0.32;;;;;;;12.28;100.00;100320.03;5036236;28;20082;-75
2023/07/12 04:35:14;;;;;;;0.30;0.30;;;;;;;12.21;100.00;100308.38;5036666;28;20392;-75
2023/07/12 04:37:48;;;;;;;0.52;0.32;;;;;;;12.28;100.00;100314.66;5053003;28;20461;-75
2023/07/12 04:40:14;;;;;;;0.52;0.40;;;;;;;12.34;100.00;100314.91;5019909;28;20029;-76
2023/07/12 04:42:40;;;;;;;0.40;0.40;;;;;;;12.41;100.00;100316.59;5052705;28;20035;-75
2023/07/12 04:45:08;;;;;;;0.30;0.30;;;;;;;12.49;100.00;100318.28;5036021;28;20024;-75
2023/07/12 04:47:35;;;;;;;0.55;0.35;;;;;;;12.56;100.00;100323.72;5020062;28;20065;-75
2023/07/12 04:50:00;;;;;;;0.30;0.30;;;;;;;12.60;100.00;100315.03;5020019;28;20124;-75
2023/07/12 04:52:26;;;;;;;0.30;0.30;;;;;;;12.66;100.00;100316.09;5019924;28;20440;-75
2023/07/12 04:54:55;;;;;;;0.38;0.30;;;;;;;12.75;100.00;100323.84;5052466;28;20036;-77
2023/07/12 04:57:21;;;;;;;0.20;0.20;;;;;;;12.74;100.00;100314.06;5019150;28;20037;-75
2023/07/12 04:59:47;;;;;;;0.30;0.30;;;;;;;12.79;100.00;100323.44;5020047;28;20463;-75
2023/07/12 05:02:12;;;;;;;0.32;0.32;;;;;;;12.84;100.00;100323.66;5019832;28;20483;-77
2023/07/12 05:04:38;;;;;;;0.32;0.30;;;;;;;12.79;100.00;100302.66;5019725;28;20039;-75
2023/07/12 05:07:09;;;;;;;0.65;0.40;;;;;;;12.95;100.00;100325.78;5020259;28;20044;-77
2023/07/12 05:09:36;;;;;;;0.90;0.50;;;;;;;12.94;100.00;100316.03;5036555;28;20463;-75
2023/07/12 05:12:01;;;;;;;1.10;0.50;;;;;;;12.96;100.00;100308.53;5019404;28;20109;-76
2023/07/12 05:14:29;;;;;;;0.28;0.28;;;;;;;13.02;100.00;100321.25;5035567;28;20468;-75
2023/07/12 05:16:55;;;;;;;0.57;0.35;;;;;;;12.96;100.00;100319.31;5035971;28;20037;-76
2023/07/12 05:19:21;;;;;;;0.82;0.40;;;;;;;12.98;100.00;100325.38;5019428;28;20459;-75
2023/07/12 05:21:47;;;;;;;0.55;0.40;;;;;;;13.05;100.00;100334.31;5035907;28;20044;-74
2023/07/12 05:24:12;;;;;;;0.45;0.35;;;;;;;13.04;100.00;100327.25;5019482;28;20055;-76
2023/07/12 05:26:38;;;;;;;1.02;0.50;;;;;;;13.08;100.00;100328.50;5053408;28;20067;-75
2023/07/12 05:29:04;;;;;;;0.65;0.40;;;;;;;13.11;100.00;100330.81;5035352;28;20029;-75
2023/07/12 05:31:29;;;;;;;0.40;0.35;;;;;;;13.14;100.00;100330.41;5052512;28;20404;-76
2023/07/12 05:33:55;;;;;;;1.02;0.55;;;;;;;13.16;100.00;100343.69;5018760;28;20375;-75
2023/07/12 05:36:21;;;;;;;0.75;0.45;;;;;;;13.15;100.00;100337.47;5019124;28;20032;-76
2023/07/12 05:38:46;;;;;;;0.93;0.40;;;;;;;13.17;100.00;100337.25;5035167;28;20037;-75
2023/07/12 05:41:12;;;;;;;0.43;0.40;;;;;;;13.20;100.00;100342.25;5018888;28;20112;-74
2023/07/12 05:43:40;;;;;;;1.33;0.57;;;;;;;13.16;100.00;100344.53;5035457;28;20491;-75
2023/07/12 05:46:08;;;;;;;0.30;0.30;;;;;;;13.05;100.00;100333.50;5035925;28;20029;-75
2023/07/12 05:48:37;;;;;;;0.68;0.40;;;;;;;13.11;100.00;100351.56;5035944;28;20171;-75
2023/07/12 05:51:04;;;;;;;0.30;0.30;;;;;;;13.07;100.00;100353.84;5035607;28;20033;-77
2023/07/12 05:53:31;;;;;;;0.30;0.30;;;;;;;13.04;100.00;100354.22;5035312;28;20033;-74
2023/07/12 05:55:58;;;;;;;0.30;0.30;;;;;;;12.98;100.00;100350.47;5035847;28;20029;-79
2023/07/12 05:58:24;;;;;;;0.35;0.35;;;;;;;12.91;100.00;100341.53;5019128;28;20084;-77
2023/07/12 06:01:01;;;;;;;0.25;0.25;;;;;;;13.14;100.00;100364.66;5019078;28;20133;-78
2023/07/12 06:03:32;;;;;;;0.55;0.40;;;;;;;13.30;100.00;100371.59;5036099;28;20127;-75
2023/07/12 06:05:58;;;;;;;0.30;0.30;;;;;;;13.52;100.00;100366.88;5051560;28;20029;-75
2023/07/12 06:08:25;;;;;;;0.43;0.35;;;;;;;13.64;100.00;100374.16;5037948;28;20090;-75
2023/07/12 06:10:50;;;;;;;0.30;0.30;;;;;;;13.68;100.00;100374.59;5055356;28;20491;-75
2023/07/12 06:13:17;;;;;;;0.30;0.30;;;;;;;13.65;100.00;100385.78;5022773;28;20037;-75
2023/07/12 06:15:42;;;;;;;0.20;0.20;;;;;;;13.51;100.00;100381.41;5038886;28;20033;-77
2023/07/12 06:18:11;;;;;;;0.20;0.20;;;;;;;13.35;100.00;100377.22;5022825;28;20365;-75
2023/07/12 06:20:37;;;;;;;0.85;0.40;;;;;;;13.19;100.00;100390.00;5039070;28;20042;-76
2023/07/12 06:23:05;;;;;;;0.55;0.40;;;;;;;13.14;100.00;100397.88;5038831;28;20296;-79
2023/07/12 06:25:31;;;;;;;0.73;0.40;;;;;;;13.19;100.00;100392.72;5055462;28;20107;-77
2023/07/12 06:27:56;;;;;;;0.85;0.45;;;;;;;13.25;100.00;100396.47;5038771;28;20502;-77
2023/07/12 06:30:28;;;;;;;1.45;0.60;;;;;;;13.30;100.00;100394.03;5037454;28;20107;-76
2023/07/12 06:32:53;;;;;;;1.20;0.55;;;;;;;13.40;100.00;100397.19;5037642;28;20033;-76
2023/07/12 06:35:19;;;;;;;1.08;0.47;;;;;;;13.53;100.00;100387.47;5038284;28;20028;-76
2023/07/12 06:37:45;;;;;;;1.90;0.63;;;;;;;13.93;100.00;100412.66;5038333;28;20029;-75
2023/07/12 06:40:18;;;;;;;0.40;0.40;;;;;;;14.50;100.00;100405.81;5021943;28;20483;-78
2023/07/12 06:42:48;;;;;;;0.85;0.50;;;;;;;15.61;100.00;100402.09;5038626;28;20029;-78
2023/07/12 06:45:14;;;;;;;1.17;0.60;;;;;;;16.45;100.00;100405.44;5021934;28;20045;-77
2023/07/12 06:47:42;;;;;;;2.22;0.90;;;;;;;17.68;100.00;100405.50;5054500;28;20254;-77
2023/07/12 06:50:09;;;;;;;1.67;0.80;;;;;;;19.36;100.00;100416.81;5021481;28;20387;-78
2023/07/12 06:52:37;;;;;;;0.30;0.30;;;;;;;19.32;100.00;100421.09;5021656;28;20044;-78
2023/07/12 06:55:06;;;;;;;1.00;0.50;;;;;;;18.20;100.00;100419.34;5022626;28;20037;-77
2023/07/12 06:57:35;;;;;;;0.40;0.40;;;;;;;18.18;100.00;100426.94;5021899;28;20123;-77
2023/07/12 07:00:07;;;;;;;0.40;0.40;;;;;;;18.93;100.00;100430.91;5021508;28;20167;-77
2023/07/12 07:02:33;;;;;;;1.92;0.70;;;;;;;19.10;100.00;100431.78;5021253;28;20384;-78
2023/07/12 07:05:02;;;;;;;1.85;0.77;;;;;;;18.24;100.00;100428.72;5021559;28;20048;-77
2023/07/12 07:07:38;;;;;;;0.20;0.20;;;;;;;17.18;100.00;100424.78;5021666;28;20127;-78
2023/07/12 07:10:05;;;;;;;0.40;0.40;;;;;;;16.63;100.00;100433.69;5021562;28;20102;-77
2023/07/12 07:12:32;;;;;;;2.13;0.68;;;;;;;16.24;100.00;100441.94;5035753;28;20075;-78
2023/07/12 07:15:19;;;;;;;0.50;0.50;;;;;;;16.37;100.00;100438.28;5019719;28;20067;-78
2023/07/12 07:17:45;;;;;;;0.65;0.50;;;;;;;17.28;100.00;100444.91;5019507;28;20033;-76
2023/07/12 07:20:11;;;;;;;1.55;0.65;;;;;;;18.13;100.00;100441.25;5052015;28;20104;-78
2023/07/12 07:22:37;;;;;;;0.88;0.80;;;;;;;18.53;100.00;100442.50;5036298;28;20091;-77
2023/07/12 07:25:03;;;;;;;1.02;0.63;;;;;;;19.88;100.00;100445.91;5019866;28;20071;-77
2023/07/12 07:27:29;;;;;;;1.08;0.57;;;;;;;19.59;100.00;100454.06;5020714;28;20041;-76
2023/07/12 07:29:56;;;;;;;0.77;0.50;;;;;;;18.59;100.00;100461.41;5054169;28;20094;-76
2023/07/12 07:32:24;;;;;;;1.95;1.02;;;;;;;17.66;100.00;100459.28;5021073;28;20045;-77
2023/07/12 07:34:54;;;;;;;0.95;0.50;;;;;;;17.03;100.00;100457.75;5053769;28;20040;-77
2023/07/12 07:37:25;;;;;;;5.15;1.40;;;;;;;16.98;100.00;100468.44;5020775;28;20430;-77
2023/07/12 07:39:51;;;;;;;0.60;0.60;;;;;;;17.00;100.00;100479.91;5021019;28;20450;-77
2023/07/12 07:42:18;;;;;;;4.10;1.27;;;;;;;17.27;100.00;100473.13;5037792;28;20051;-77
2023/07/12 07:44:44;;;;;;;4.38;1.48;;;;;;;17.45;100.00;100475.00;5037283;28;20028;-77
2023/07/12 07:47:10;;;;;;;2.75;0.85;;;;;;;17.84;100.00;100480.19;5053179;28;20081;-77
2023/07/12 07:49:37;;;;;;;3.05;1.20;;;;;;;18.33;100.00;100481.75;5020156;28;20072;-78
2023/07/12 07:52:03;;;;;;;5.85;1.30;;;;;;;18.69;100.00;100474.47;5020895;28;20038;-78
2023/07/12 07:54:28;;;;;;;6.88;1.35;;;;;;;18.41;100.00;100478.69;5036929;28;20040;-78
2023/07/12 07:56:54;;;;;;;6.63;1.45;;;;;;;19.62;100.00;100480.03;5020355;28;20047;-79
2023/07/12 07:59:21;;;;;;;9.23;2.13;;;;;;;20.99;100.00;100473.41;5052776;28;20090;-78
2023/07/12 08:01:47;;;;;;;6.57;1.40;;;;;;;21.59;98.57;100473.66;5052723;28;20453;-79
2023/07/12 08:04:13;;;;;;;7.13;2.05;;;;;;;21.83;94.88;100476.91;5035118;28;20047;-78
2023/07/12 08:06:39;;;;;;;7.38;2.00;;;;;;;21.37;97.43;100473.63;5018346;28;20476;-78
2023/07/12 08:09:07;;;;;;;7.93;1.77;;;;;;;22.34;95.01;100494.72;5018540;28;20040;-79
2023/07/12 08:11:33;;;;;;;8.68;2.00;;;;;;;23.56;89.21;100493.06;5034498;28;20467;-78
2023/07/12 08:13:59;;;;;;;8.32;2.30;;;;;;;24.00;88.01;100498.13;5034598;28;20650;-78
2023/07/12 08:16:27;;;;;;;6.18;1.30;;;;;;;23.24;93.09;100494.81;5019327;28;20043;-79
2023/07/12 08:18:53;;;;;;;4.32;1.30;;;;;;;23.32;88.32;100498.16;5053492;28;20025;-78
2023/07/12 08:21:19;;;;;;;4.82;1.50;;;;;;;22.14;95.18;100503.53;5020169;28;20021;-83
2023/07/12 08:23:45;;;;;;;4.90;1.45;;;;;;;21.71;95.24;100509.91;5018983;28;20064;-83
2023/07/12 08:26:11;;;;;;;3.60;1.08;;;;;;;22.01;90.17;100498.47;5036699;28;20039;-83
2023/07/12 08:28:37;;;;;;;5.45;1.60;;;;;;;22.59;88.04;100498.75;5019468;28;20116;-83
2023/07/12 08:31:03;;;;;;;7.30;1.55;;;;;;;21.70;91.59;100511.00;5019218;28;20029;-83
2023/07/12 08:33:31;;;;;;;7.30;1.55;;;;;;;21.45;93.25;100512.34;5036671;28;20124;-83
2023/07/12 08:35:57;;;;;;;6.93;1.83;;;;;;;21.66;90.87;100518.06;5019381;28;20044;-84
2023/07/12 08:38:23;;;;;;;4.80;1.50;;;;;;;21.88;89.03;100523.50;5020517;28;20029;-83
2023/07/12 08:40:50;;;;;;;3.97;1.20;;;;;;;21.53;89.19;100519.28;5022086;28;20029;-84
2023/07/12 08:43:19;;;;;;;3.65;1.08;;;;;;;20.79;91.66;100514.91;5036927;28;20040;-84
2023/07/12 08:45:47;;;;;;;5.90;1.13;;;;;;;20.11;93.87;100514.03;5053094;28;20025;-84
2023/07/12 08:48:21;;;;;;;5.60;1.70;;;;;;;21.88;89.05;100513.38;5036418;28;20407;-84
2023/07/12 08:50:48;;;;;;;6.97;1.70;;;;;;;24.18;79.11;100516.84;5035836;28;20025;-84
2023/07/12 08:53:17;;;;;;;3.97;1.83;;;;;;;25.51;71.19;100516.78;5036128;28;20037;-84
2023/07/12 08:55:43;;;;;;;2.10;1.10;;;;;;;26.20;66.34;100517.81;5019345;28;20068;-83
2023/07/12 08:58:26;;;;;;;5.13;1.50;;;;;;;26.89;62.72;100515.88;5019539;28;20137;-83
2023/07/12 09:01:15;;;;;;;37.53;3.05;;;;;;;27.46;58.86;100529.91;5052036;28;20119;-83
2023/07/12 09:03:41;;;;;;;139.20;16.17;;;;;;;27.48;57.44;100524.09;5036035;28;20037;-83
2023/07/12 09:06:15;;;;;;;31.40;10.57;;;;;;;26.70;56.90;100523.22;5035957;28;20490;-83
2023/07/12 09:08:50;;;;;;;6.32;1.67;;;;;;;25.55;62.29;100528.03;5018661;28;20035;-84
2023/07/12 09:11:19;;;;;;;6.60;2.03;;;;;;;24.55;63.98;100521.31;5019397;28;20459;-86
2023/07/12 09:13:46;;;;;;;4.47;1.65;;;;;;;23.90;60.94;100521.75;5051363;28;20031;-83
2023/07/12 09:16:37;;;;;;;5.28;1.50;;;;;;;23.59;57.33;100534.50;5034010;28;20056;-82
2023/07/12 09:19:51;;;;;;;6.10;1.85;;;;;;;23.34;56.04;100532.47;5035335;28;20551;-85
2023/07/12 09:22:18;;;;;;;5.38;1.65;;;;;;;24.00;52.39;100503.63;5035942;28;20039;-82
2023/07/12 09:24:50;;;;;;;6.07;1.58;;;;;;;24.54;51.65;100517.75;5019229;28;20047;-81
2023/07/12 09:27:18;;;;;;;7.15;1.90;;;;;;;25.58;50.18;100542.03;5035323;28;20483;-82
2023/07/12 09:29:44;;;;;;;3.22;1.25;;;;;;;26.96;44.33;100515.53;5035383;28;20029;-82
2023/07/12 09:32:27;;;;;;;4.30;1.60;;;;;;;27.08;42.89;100539.97;5019109;28;20048;-82
2023/07/12 09:34:54;;;;;;;3.42;1.00;;;;;;;26.40;42.62;100540.81;5019306;28;20076;-82
2023/07/12 09:37:22;;;;;;;5.22;1.42;;;;;;;25.24;45.06;100541.88;5035416;28;20059;-81
2023/07/12 09:40:10;;;;;;;4.30;1.30;;;;;;;24.62;44.66;100537.53;5035179;28;20083;-81
2023/07/12 09:42:48;;;;;;;4.75;1.40;;;;;;;24.64;44.60;100552.66;5007480;28;20033;-81
2023/07/12 09:45:14;;;;;;;4.63;1.48;;;;;;;24.21;45.61;100541.03;5022966;28;20041;-81
2023/07/12 09:48:01;;;;;;;6.88;1.67;;;;;;;23.68;47.66;100549.38;5039526;28;20533;-80
2023/07/12 09:50:39;;;;;;;4.72;1.73;;;;;;;23.56;47.08;100546.00;5038699;28;20075;-83
2023/07/12 09:53:33;;;;;;;5.70;1.60;;;;;;;23.31;48.56;100546.69;5020635;28;20036;-82
2023/07/12 09:56:15;;;;;;;4.95;1.55;;;;;;;23.32;48.49;100544.81;5014608;28;20048;-83
2023/07/12 09:58:48;;;;;;;;;;;;;;;23.37;49.06;100547.56;5037359;28;20032;-81
2023/07/12 10:01:30;;;;;;;7.93;1.90;;;;;;;22.99;49.29;100555.00;5053453;28;20409;-83
2023/07/12 10:04:03;;;;;;;4.00;1.35;;;;;;;22.75;49.60;100558.06;5020531;28;20140;-79
2023/07/12 10:06:40;;;;;;;6.77;1.50;;;;;;;22.65;47.89;100568.97;5038613;28;20391;-84
2023/07/12 10:09:20;;;;;;;7.05;1.23;;;;;;;22.48;48.76;100554.56;5056614;28;20025;-82
2023/07/12 10:12:14;;;;;;;4.90;1.75;;;;;;;22.35;50.90;100559.38;5055387;28;20037;-83
2023/07/12 10:14:44;;;;;;;4.82;1.20;;;;;;;22.37;50.72;100557.19;5055954;28;20029;-79
2023/07/12 10:17:18;;;;;;;8.93;2.08;;;;;;;22.38;49.25;100556.09;5038981;28;20040;-80
2023/07/12 10:20:00;;;;;;;6.43;1.52;;;;;;;22.20;49.68;100551.00;5039774;28;20025;-80
2023/07/12 10:22:31;;;;;;;5.45;1.33;;;;;;;22.16;50.23;100560.78;5039552;28;20041;-83
2023/07/12 10:24:59;;;;;;;5.53;1.45;;;;;;;22.07;49.97;100540.41;5055549;28;20048;-80
2023/07/12 10:27:29;;;;;;;4.35;1.30;;;;;;;22.19;50.45;100565.78;5039083;28;20029;-82
2023/07/12 10:30:02;;;;;;;308.67;77.18;;;;;;;21.88;49.11;100551.69;5022289;28;20086;-81
2023/07/12 10:32:38;;;;;;;7.47;1.70;;;;;;;21.41;51.38;100576.84;5039082;28;20044;-82
2023/07/12 10:35:16;;;;;;;3.40;1.80;;;;;;;20.87;52.93;100565.59;5039017;28;20131;-83
2023/07/12 10:38:01;;;;;;;4.63;1.17;;;;;;;20.67;53.29;100576.19;5022306;28;20037;-81
2023/07/12 10:40:32;;;;;;;7.90;1.40;;;;;;;20.44;55.96;100567.03;5022166;28;20033;-83
2023/07/12 10:43:12;;;;;;;3.90;1.10;;;;;;;20.67;55.03;100571.56;5055190;28;20029;-82
2023/07/12 10:45:43;;;;;;;4.95;1.20;;;;;;;20.80;55.41;100567.69;5039149;28;20124;-83
2023/07/12 10:48:14;;;;;;;4.05;1.52;;;;;;;21.02;53.31;100589.63;5021453;28;20025;-81
2023/07/12 10:50:48;;;;;;;9.10;1.50;;;;;;;21.06;51.77;100602.56;5054728;28;20063;-83
2023/07/12 10:53:30;;;;;;;5.97;1.52;;;;;;;20.66;53.07;100545.31;5021530;28;20080;-82
2023/07/12 10:56:07;;;;;;;35.70;5.13;;;;;;;21.14;52.88;100590.34;5054298;28;20112;-82
2023/07/12 10:58:41;;;;;;;5.78;1.60;;;;;;;21.77;51.97;100574.56;5038405;28;20043;-83
2023/07/12 11:01:34;;;;;;;4.72;1.77;;;;;;;23.72;47.97;100606.50;5037628;28;20040;-81
2023/07/12 11:04:17;;;;;;;3.78;1.20;;;;;;;23.24;46.46;100604.56;5037919;28;20025;-81
2023/07/12 11:06:59;;;;;;;5.70;1.30;;;;;;;22.78;48.34;100604.19;5054910;28;20129;-82
2023/07/12 11:09:45;;;;;;;9.52;1.80;;;;;;;22.52;48.68;100574.84;5021481;28;20356;-81
2023/07/12 11:12:16;;;;;;;4.00;1.23;;;;;;;23.03;48.42;100589.03;5055357;28;20099;-83
2023/07/12 11:14:41;;;;;;;7.20;1.50;;;;;;;23.07;48.70;100584.66;5021508;28;20068;-82
2023/07/12 11:17:07;;;;;;;4.18;1.00;;;;;;;22.78;49.24;100595.94;5054576;28;20071;-82
2023/07/12 11:20:06;;;;;;;6.68;2.00;;;;;;;22.14;50.66;100596.63;5037762;28;20463;-83
2023/07/12 11:22:55;;;;;;;6.20;1.38;;;;;;;21.76;51.52;100592.06;5017805;28;20132;-82
2023/07/12 11:25:52;;;;;;;5.45;1.40;;;;;;;21.62;52.78;100597.09;5022328;28;20464;-82
2023/07/12 11:28:41;;;;;;;5.78;1.38;;;;;;;21.89;53.43;100602.66;5037935;28;20048;-83